sensor_id;sensor_type;location;lat;lon;timestamp;pressure;altitude;pressure_sealevel;temperature;humidity
12868;BME280;33517;49.866;8.320;2023-11-19T00:01:02;100282.03;;;9.01;100.00
12868;BME280;33517;49.866;8.320;2023-11-19T00:03:56;100277.31;;;9.13;100.00
12868;BME280;33517;49.866;8.320;2023-11-19T00:06:48;100280.09;;;9.11;100.00
12868;BME280;33517;49.866;8.320;2023-11-19T00:09:40;100278.25;;;9.04;100.00
12868;BME280;33517;49.866;8.320;2023-11-19T00:12:32;100273.38;;;9.17;100.00
12868;BME280;33517;49.866;8.320;2023-11-19T00:15:24;100283.88;;;9.09;100.00
12868;BME280;33517;49.866;8.320;2023-11-19T00:18:17;100282.75;;;9.19;100.00
12868;BME280;33517;49.866;8.320;2023-11-19T00:21:09;100287.38;;;9.25;100.00
12868;BME280;33517;49.866;8.320;2023-11-19T00:24:03;100291.28;;;9.21;100.00
12868;BME280;33517;49.866;8.320;2023-11-19T00:26:55;100286.22;;;9.20;100.00
12868;BME280;33517;49.866;8.320;2023-11-19T00:29:47;100281.28;;;9.25;100.00
12868;BME280;33517;49.866;8.320;2023-11-19T00:32:40;100288.19;;;9.26;100.00
12868;BME280;33517;49.866;8.320;2023-11-19T00:35:33;100277.38;;;9.29;100.00
12868;BME280;33517;49.866;8.320;2023-11-19T00:38:25;100280.19;;;9.36;100.00
12868;BME280;33517;49.866;8.320;2023-11-19T00:41:17;100268.06;;;9.43;100.00
12868;BME280;33517;49.866;8.320;2023-11-19T00:44:09;100270.69;;;9.51;100.00
12868;BME280;33517;49.866;8.320;2023-11-19T00:47:01;100280.41;;;9.58;100.00
12868;BME280;33517;49.866;8.320;2023-11-19T00:49:53;100273.00;;;9.62;100.00
12868;BME280;33517;49.866;8.320;2023-11-19T00:52:46;100274.63;;;9.63;100.00
12868;BME280;33517;49.866;8.320;2023-11-19T00:55:38;100272.66;;;9.65;100.00
12868;BME280;33517;49.866;8.320;2023-11-19T00:58:30;100267.59;;;9.63;100.00
12868;BME280;33517;49.866;8.320;2023-11-19T01:01:23;100274.47;;;9.72;100.00
12868;BME280;33517;49.866;8.320;2023-11-19T01:04:16;100254.63;;;9.78;100.00
12868;BME280;33517;49.866;8.320;2023-11-19T01:07:07;100251.34;;;9.76;100.00
12868;BME280;33517;49.866;8.320;2023-11-19T01:10:05;100231.94;;;9.69;100.00
12868;BME280;33517;49.866;8.320;2023-11-19T01:12:58;100236.38;;;9.52;100.00
12868;BME280;33517;49.866;8.320;2023-11-19T01:15:50;100259.69;;;9.47;100.00
12868;BME280;33517;49.866;8.320;2023-11-19T01:18:42;100227.00;;;9.42;100.00
12868;BME280;33517;49.866;8.320;2023-11-19T01:21:34;100253.75;;;9.37;100.00
12868;BME280;33517;49.866;8.320;2023-11-19T01:24:26;100249.16;;;9.31;100.00
12868;BME280;33517;49.866;8.320;2023-11-19T01:27:20;100243.41;;;9.27;100.00
12868;BME280;33517;49.866;8.320;2023-11-19T01:30:13;100205.16;;;9.25;100.00
12868;BME280;33517;49.866;8.320;2023-11-19T01:33:05;100223.38;;;9.26;100.00
12868;BME280;33517;49.866;8.320;2023-11-19T01:35:58;100215.69;;;9.33;100.00
12868;BME280;33517;49.866;8.320;2023-11-19T01:38:50;100204.69;;;9.29;100.00
12868;BME280;33517;49.866;8.320;2023-11-19T01:41:42;100215.00;;;9.31;100.00
12868;BME280;33517;49.866;8.320;2023-11-19T01:44:35;100234.88;;;9.42;100.00
12868;BME280;33517;49.866;8.320;2023-11-19T01:47:28;100234.72;;;9.51;100.00
12868;BME280;33517;49.866;8.320;2023-11-19T01:50:22;100233.13;;;9.66;100.00
12868;BME280;33517;49.866;8.320;2023-11-19T01:53:15;100204.38;;;9.65;100.00
12868;BME280;33517;49.866;8.320;2023-11-19T01:56:08;100197.50;;;9.72;100.00
12868;BME280;33517;49.866;8.320;2023-11-19T01:59:01;100176.78;;;9.69;100.00
12868;BME280;33517;49.866;8.320;2023-11-19T02:01:55;100177.59;;;9.61;100.00
12868;BME280;33517;49.866;8.320;2023-11-19T02:04:49;100173.53;;;9.59;100.00
12868;BME280;33517;49.866;8.320;2023-11-19T02:07:42;100168.06;;;9.76;100.00
12868;BME280;33517;49.866;8.320;2023-11-19T02:10:34;100167.75;;;9.87;100.00
12868;BME280;33517;49.866;8.320;2023-11-19T02:13:27;100171.16;;;9.96;100.00
12868;BME280;33517;49.866;8.320;2023-11-19T02:16:19;100155.75;;;9.93;100.00
12868;BME280;33517;49.866;8.320;2023-11-19T02:19:12;100164.41;;;10.01;100.00
12868;BME280;33517;49.866;8.320;2023-11-19T02:22:04;100160.31;;;10.07;100.00
12868;BME280;33517;49.866;8.320;2023-11-19T02:24:59;100166.88;;;10.03;100.00
12868;BME280;33517;49.866;8.320;2023-11-19T02:27:57;100162.31;;;9.97;100.00
12868;BME280;33517;49.866;8.320;2023-11-19T02:30:50;100156.22;;;10.04;100.00
12868;BME280;33517;49.866;8.320;2023-11-19T02:33:42;100159.50;;;10.06;100.00
12868;BME280;33517;49.866;8.320;2023-11-19T02:36:34;100152.44;;;10.15;100.00
12868;BME280;33517;49.866;8.320;2023-11-19T02:39:25;100147.16;;;10.23;100.00
12868;BME280;33517;49.866;8.320;2023-11-19T02:42:17;100134.31;;;10.20;100.00
12868;BME280;33517;49.866;8.320;2023-11-19T02:45:11;100130.72;;;10.21;100.00
12868;BME280;33517;49.866;8.320;2023-11-19T02:48:05;100122.34;;;10.26;100.00
12868;BME280;33517;49.866;8.320;2023-11-19T02:50:57;100115.75;;;10.30;100.00
12868;BME280;33517;49.866;8.320;2023-11-19T02:53:49;100125.25;;;10.39;100.00
12868;BME280;33517;49.866;8.320;2023-11-19T02:56:42;100123.38;;;10.47;100.00
12868;BME280;33517;49.866;8.320;2023-11-19T02:59:37;100126.66;;;10.49;100.00
12868;BME280;33517;49.866;8.320;2023-11-19T03:02:33;100127.97;;;10.53;100.00
12868;BME280;33517;49.866;8.320;2023-11-19T03:05:34;100123.81;;;10.59;100.00
12868;BME280;33517;49.866;8.320;2023-11-19T03:08:26;100127.56;;;10.64;100.00
12868;BME280;33517;49.866;8.320;2023-11-19T03:11:18;100131.50;;;10.68;100.00
12868;BME280;33517;49.866;8.320;2023-11-19T03:14:10;100116.53;;;10.69;100.00
12868;BME280;33517;49.866;8.320;2023-11-19T03:17:03;100117.38;;;10.69;100.00
12868;BME280;33517;49.866;8.320;2023-11-19T03:19:57;100115.53;;;10.70;100.00
12868;BME280;33517;49.866;8.320;2023-11-19T03:22:49;100111.97;;;10.63;100.00
12868;BME280;33517;49.866;8.320;2023-11-19T03:25:44;100104.25;;;10.61;100.00
12868;BME280;33517;49.866;8.320;2023-11-19T03:28:36;100103.41;;;10.61;100.00
12868;BME280;33517;49.866;8.320;2023-11-19T03:31:29;100108.03;;;10.59;100.00
12868;BME280;33517;49.866;8.320;2023-11-19T03:34:21;100111.97;;;10.63;100.00
12868;BME280;33517;49.866;8.320;2023-11-19T03:37:15;100101.63;;;10.61;100.00
12868;BME280;33517;49.866;8.320;2023-11-19T03:40:08;100104.25;;;10.61;100.00
12868;BME280;33517;49.866;8.320;2023-11-19T03:43:01;100104.91;;;10.63;100.00
12868;BME280;33517;49.866;8.320;2023-11-19T03:45:54;100101.63;;;10.61;100.00
12868;BME280;33517;49.866;8.320;2023-11-19T03:48:48;100100.09;;;10.67;100.00
12868;BME280;33517;49.866;8.320;2023-11-19T03:51:40;100096.78;;;10.73;100.00
12868;BME280;33517;49.866;8.320;2023-11-19T03:54:33;100096.88;;;10.79;100.00
12868;BME280;33517;49.866;8.320;2023-11-19T03:57:25;100091.44;;;10.89;100.00
12868;BME280;33517;49.866;8.320;2023-11-19T04:00:17;100090.72;;;10.95;100.00
12868;BME280;33517;49.866;8.320;2023-11-19T04:03:11;100094.81;;;10.97;100.00
12868;BME280;33517;49.866;8.320;2023-11-19T04:06:03;100100.03;;;11.05;100.00
12868;BME280;33517;49.866;8.320;2023-11-19T04:08:55;100098.50;;;11.11;100.00
12868;BME280;33517;49.866;8.320;2023-11-19T04:11:49;100093.22;;;11.11;100.00
12868;BME280;33517;49.866;8.320;2023-11-19T04:14:41;100091.75;;;11.08;100.00
12868;BME280;33517;49.866;8.320;2023-11-19T04:17:33;100078.06;;;11.13;100.00
12868;BME280;33517;49.866;8.320;2023-11-19T04:20:25;100078.06;;;11.13;100.00
12868;BME280;33517;49.866;8.320;2023-11-19T04:23:16;100077.44;;;11.11;100.00
12868;BME280;33517;49.866;8.320;2023-11-19T04:26:08;100081.53;;;11.13;100.00
12868;BME280;33517;49.866;8.320;2023-11-19T04:29:02;100086.72;;;11.22;100.00
12868;BME280;33517;49.866;8.320;2023-11-19T04:31:53;100089.19;;;11.23;100.00
12868;BME280;33517;49.866;8.320;2023-11-19T04:34:45;100086.00;;;11.28;100.00
12868;BME280;33517;49.866;8.320;2023-11-19T04:37:37;100079.22;;;11.33;100.00
12868;BME280;33517;49.866;8.320;2023-11-19T04:40:29;100069.78;;;11.39;100.00
12868;BME280;33517;49.866;8.320;2023-11-19T04:43:21;100074.53;;;11.43;100.00
12868;BME280;33517;49.866;8.320;2023-11-19T04:46:14;100073.69;;;11.43;100.00
12868;BME280;33517;49.866;8.320;2023-11-19T04:49:06;100074.97;;;11.47;100.00
12868;BME280;33517;49.866;8.320;2023-11-19T04:51:58;100078.06;;;11.50;100.00
12868;BME280;33517;49.866;8.320;2023-11-19T04:54:50;100081.72;;;11.49;100.00
12868;BME280;33517;49.866;8.320;2023-11-19T04:57:43;100076.19;;;11.44;100.00
12868;BME280;33517;49.866;8.320;2023-11-19T05:00:35;100074.53;;;11.43;100.00
12868;BME280;33517;49.866;8.320;2023-11-19T05:03:28;100073.25;;;11.39;100.00
12868;BME280;33517;49.866;8.320;2023-11-19T05:06:20;100063.91;;;11.37;100.00
12868;BME280;33517;49.866;8.320;2023-11-19T05:09:12;100067.06;;;11.32;100.00
12868;BME280;33517;49.866;8.320;2023-11-19T05:12:04;100064.22;;;11.34;100.00
12868;BME280;33517;49.866;8.320;2023-11-19T05:14:59;100066.16;;;11.40;100.00
12868;BME280;33517;49.866;8.320;2023-11-19T05:17:51;100072.91;;;11.42;100.00
12868;BME280;33517;49.866;8.320;2023-11-19T05:20:45;100074.34;;;11.45;100.00
12868;BME280;33517;49.866;8.320;2023-11-19T05:23:36;100071.81;;;11.51;100.00
12868;BME280;33517;49.866;8.320;2023-11-19T05:26:29;100069.28;;;11.58;100.00
12868;BME280;33517;49.866;8.320;2023-11-19T05:29:20;100071.06;;;11.65;100.00
12868;BME280;33517;49.866;8.320;2023-11-19T05:32:12;100070.88;;;11.67;100.00
12868;BME280;33517;49.866;8.320;2023-11-19T05:35:06;100067.22;;;11.68;100.00
12868;BME280;33517;49.866;8.320;2023-11-19T05:38:00;100055.69;;;11.69;100.00
12868;BME280;33517;49.866;8.320;2023-11-19T05:40:53;100053.41;;;11.66;100.00
12868;BME280;33517;49.866;8.320;2023-11-19T05:43:45;100059.31;;;11.68;100.00
12868;BME280;33517;49.866;8.320;2023-11-19T05:46:37;100044.16;;;11.70;100.00
12868;BME280;33517;49.866;8.320;2023-11-19T05:49:33;100052.50;;;11.73;100.00
12868;BME280;33517;49.866;8.320;2023-11-19T05:52:25;100047.06;;;11.75;100.00
12868;BME280;33517;49.866;8.320;2023-11-19T05:55:20;100051.78;;;11.79;100.00
12868;BME280;33517;49.866;8.320;2023-11-19T05:58:13;100063.41;;;11.85;100.00
12868;BME280;33517;49.866;8.320;2023-11-19T06:01:06;100065.34;;;11.91;100.00
12868;BME280;33517;49.866;8.320;2023-11-19T06:03:58;100066.97;;;11.92;100.00
12868;BME280;33517;49.866;8.320;2023-11-19T06:06:51;100068.78;;;11.91;100.00
12868;BME280;33517;49.866;8.320;2023-11-19T06:09:45;100063.34;;;11.93;100.00
12868;BME280;33517;49.866;8.320;2023-11-19T06:12:38;100069.25;;;11.95;100.00
12868;BME280;33517;49.866;8.320;2023-11-19T06:15:32;100079.41;;;11.98;100.00
12868;BME280;33517;49.866;8.320;2023-11-19T06:18:24;100073.97;;;11.99;100.00
12868;BME280;33517;49.866;8.320;2023-11-19T06:21:16;100076.63;;;11.99;100.00
12868;BME280;33517;49.866;8.320;2023-11-19T06:24:08;100073.06;;;12.07;100.00
12868;BME280;33517;49.866;8.320;2023-11-19T06:27:00;100079.06;;;12.01;100.00
12868;BME280;33517;49.866;8.320;2023-11-19T06:29:53;100086.34;;;11.99;100.00
12868;BME280;33517;49.866;8.320;2023-11-19T06:32:45;100081.91;;;11.99;100.00
12868;BME280;33517;49.866;8.320;2023-11-19T06:35:37;100075.41;;;12.02;100.00
12868;BME280;33517;49.866;8.320;2023-11-19T06:38:29;100077.53;;;12.07;100.00
12868;BME280;33517;49.866;8.320;2023-11-19T06:41:21;100081.63;;;12.09;100.00
12868;BME280;33517;49.866;8.320;2023-11-19T06:44:13;100093.44;;;12.13;100.00
12868;BME280;33517;49.866;8.320;2023-11-19T06:47:06;100093.69;;;12.18;100.00
12868;BME280;33517;49.866;8.320;2023-11-19T06:49:58;100095.31;;;12.19;100.00
12868;BME280;33517;49.866;8.320;2023-11-19T06:52:50;100101.63;;;12.18;100.00
12868;BME280;33517;49.866;8.320;2023-11-19T06:55:42;100095.53;;;12.03;100.00
12868;BME280;33517;49.866;8.320;2023-11-19T06:58:35;100091.78;;;11.83;100.00
12868;BME280;33517;49.866;8.320;2023-11-19T07:01:27;100090.31;;;11.66;100.00
12868;BME280;33517;49.866;8.320;2023-11-19T07:04:21;100094.19;;;11.55;100.00
12868;BME280;33517;49.866;8.320;2023-11-19T07:07:13;100078.56;;;11.54;100.00
12868;BME280;33517;49.866;8.320;2023-11-19T07:10:06;100081.53;;;11.51;100.00
12868;BME280;33517;49.866;8.320;2023-11-19T07:12:59;100080.56;;;11.52;100.00
12868;BME280;33517;49.866;8.320;2023-11-19T07:15:52;100075.91;;;11.54;100.00
12868;BME280;33517;49.866;8.320;2023-11-19T07:18:44;100078.00;;;11.58;100.00
12868;BME280;33517;49.866;8.320;2023-11-19T07:21:40;100085.38;;;11.63;100.00
12868;BME280;33517;49.866;8.320;2023-11-19T07:24:34;100086.69;;;11.67;100.00
12868;BME280;33517;49.866;8.320;2023-11-19T07:27:26;100084.78;;;11.75;100.00
12868;BME280;33517;49.866;8.320;2023-11-19T07:30:18;100099.78;;;11.75;100.00
12868;BME280;33517;49.866;8.320;2023-11-19T07:33:10;100091.13;;;11.81;100.00
12868;BME280;33517;49.866;8.320;2023-11-19T07:36:02;100091.69;;;11.91;100.00
12868;BME280;33517;49.866;8.320;2023-11-19T07:38:56;100088.53;;;11.95;100.00
12868;BME280;33517;49.866;8.320;2023-11-19T07:41:48;100088.97;;;11.99;100.00
12868;BME280;33517;49.866;8.320;2023-11-19T07:44:40;100092.44;;;11.99;100.00
12868;BME280;33517;49.866;8.320;2023-11-19T07:47:33;100095.72;;;12.01;100.00
12868;BME280;33517;49.866;8.320;2023-11-19T07:50:25;100107.81;;;12.11;100.00
12868;BME280;33517;49.866;8.320;2023-11-19T07:53:17;100113.94;;;12.97;100.00
12868;BME280;33517;49.866;8.320;2023-11-19T07:56:10;100110.38;;;13.05;100.00
12868;BME280;33517;49.866;8.320;2023-11-19T07:59:02;100116.09;;;12.72;100.00
12868;BME280;33517;49.866;8.320;2023-11-19T08:01:54;100109.22;;;14.52;100.00
12868;BME280;33517;49.866;8.320;2023-11-19T08:04:46;100108.34;;;16.16;96.99
12868;BME280;33517;49.866;8.320;2023-11-19T08:07:40;100107.97;;;17.64;92.24
12868;BME280;33517;49.866;8.320;2023-11-19T08:10:32;100116.56;;;18.26;89.33
12868;BME280;33517;49.866;8.320;2023-11-19T08:13:26;100104.28;;;19.85;83.28
12868;BME280;33517;49.866;8.320;2023-11-19T08:16:18;100103.75;;;20.46;79.74
12868;BME280;33517;49.866;8.320;2023-11-19T08:19:10;100112.88;;;21.30;78.46
12868;BME280;33517;49.866;8.320;2023-11-19T08:22:01;100113.13;;;21.94;72.95
12868;BME280;33517;49.866;8.320;2023-11-19T08:24:53;100127.53;;;19.02;82.36
12868;BME280;33517;49.866;8.320;2023-11-19T08:27:45;100125.00;;;16.43;84.51
12868;BME280;33517;49.866;8.320;2023-11-19T08:30:39;100120.00;;;15.17;91.17
12868;BME280;33517;49.866;8.320;2023-11-19T08:33:31;100123.47;;;14.51;93.99
12868;BME280;33517;49.866;8.320;2023-11-19T08:36:23;100121.25;;;14.20;96.03
12868;BME280;33517;49.866;8.320;2023-11-19T08:39:15;100129.50;;;14.04;97.21
12868;BME280;33517;49.866;8.320;2023-11-19T08:42:07;100134.88;;;13.89;98.52
12868;BME280;33517;49.866;8.320;2023-11-19T08:44:59;100136.09;;;13.87;99.98
12868;BME280;33517;49.866;8.320;2023-11-19T08:47:52;100136.31;;;13.85;100.00
12868;BME280;33517;49.866;8.320;2023-11-19T08:50:44;100144.41;;;13.84;99.90
12868;BME280;33517;49.866;8.320;2023-11-19T08:53:36;100152.59;;;13.89;100.00
12868;BME280;33517;49.866;8.320;2023-11-19T08:56:28;100148.72;;;13.85;99.83
12868;BME280;33517;49.866;8.320;2023-11-19T08:59:23;100153.31;;;13.76;100.00
12868;BME280;33517;49.866;8.320;2023-11-19T09:02:15;100154.34;;;13.75;100.00
12868;BME280;33517;49.866;8.320;2023-11-19T09:05:09;100143.97;;;13.80;100.00
12868;BME280;33517;49.866;8.320;2023-11-19T09:08:00;100144.31;;;13.71;100.00
12868;BME280;33517;49.866;8.320;2023-11-19T09:10:53;100144.69;;;14.23;100.00
12868;BME280;33517;49.866;8.320;2023-11-19T09:13:45;100138.47;;;14.85;96.93
12868;BME280;33517;49.866;8.320;2023-11-19T09:16:37;100120.59;;;16.75;92.47
12868;BME280;33517;49.866;8.320;2023-11-19T09:19:32;100127.75;;;19.30;80.08
12868;BME280;33517;49.866;8.320;2023-11-19T09:22:26;100139.69;;;19.69;78.36
12868;BME280;33517;49.866;8.320;2023-11-19T09:25:18;100130.41;;;17.49;79.73
12868;BME280;33517;49.866;8.320;2023-11-19T09:28:10;100143.66;;;16.30;83.52
12868;BME280;33517;49.866;8.320;2023-11-19T09:31:13;100152.91;;;15.42;86.63
12868;BME280;33517;49.866;8.320;2023-11-19T09:34:05;100163.44;;;15.29;88.22
12868;BME280;33517;49.866;8.320;2023-11-19T09:36:57;100161.69;;;14.83;90.27
12868;BME280;33517;49.866;8.320;2023-11-19T09:39:50;100152.69;;;14.70;91.29
12868;BME280;33517;49.866;8.320;2023-11-19T09:42:43;100155.50;;;15.29;90.51
12868;BME280;33517;49.866;8.320;2023-11-19T09:45:47;100154.75;;;15.55;89.51
12868;BME280;33517;49.866;8.320;2023-11-19T09:48:40;100154.72;;;15.94;88.14
12868;BME280;33517;49.866;8.320;2023-11-19T09:51:32;100156.34;;;16.85;84.71
12868;BME280;33517;49.866;8.320;2023-11-19T09:54:24;100153.22;;;16.31;85.67
12868;BME280;33517;49.866;8.320;2023-11-19T09:57:18;100154.56;;;17.48;83.67
12868;BME280;33517;49.866;8.320;2023-11-19T10:00:11;100148.09;;;18.11;78.98
12868;BME280;33517;49.866;8.320;2023-11-19T10:03:07;100140.72;;;17.33;79.65
12868;BME280;33517;49.866;8.320;2023-11-19T10:06:00;100136.28;;;17.83;81.61
12868;BME280;33517;49.866;8.320;2023-11-19T10:08:52;100134.28;;;18.39;76.28
12868;BME280;33517;49.866;8.320;2023-11-19T10:11:46;100140.72;;;18.68;77.00
12868;BME280;33517;49.866;8.320;2023-11-19T10:14:39;100132.22;;;18.59;76.74
12868;BME280;33517;49.866;8.320;2023-11-19T10:17:33;100135.94;;;19.47;74.24
12868;BME280;33517;49.866;8.320;2023-11-19T10:20:25;100146.19;;;18.36;74.67
12868;BME280;33517;49.866;8.320;2023-11-19T10:23:17;100144.81;;;17.04;77.53
12868;BME280;33517;49.866;8.320;2023-11-19T10:26:09;100139.28;;;16.62;80.24
12868;BME280;33517;49.866;8.320;2023-11-19T10:29:01;100135.75;;;16.74;80.68
12868;BME280;33517;49.866;8.320;2023-11-19T10:31:59;100137.75;;;16.79;80.49
12868;BME280;33517;49.866;8.320;2023-11-19T10:34:50;100138.13;;;16.89;79.34
12868;BME280;33517;49.866;8.320;2023-11-19T10:37:43;100144.03;;;16.40;81.46
12868;BME280;33517;49.866;8.320;2023-11-19T10:40:38;100125.53;;;16.01;81.52
12868;BME280;33517;49.866;8.320;2023-11-19T10:43:31;100123.38;;;18.22;76.49
12868;BME280;33517;49.866;8.320;2023-11-19T10:46:38;100127.16;;;18.99;73.30
12868;BME280;33517;49.866;8.320;2023-11-19T10:49:32;100127.16;;;19.28;70.18
12868;BME280;33517;49.866;8.320;2023-11-19T10:52:27;100121.56;;;19.60;70.70
12868;BME280;33517;49.866;8.320;2023-11-19T10:55:22;100121.31;;;20.31;69.06
12868;BME280;33517;49.866;8.320;2023-11-19T10:58:18;100115.13;;;20.93;64.57
12868;BME280;33517;49.866;8.320;2023-11-19T11:01:13;100107.75;;;20.72;63.64
12868;BME280;33517;49.866;8.320;2023-11-19T11:04:12;100110.84;;;20.80;62.87
12868;BME280;33517;49.866;8.320;2023-11-19T11:07:07;100106.00;;;21.05;61.17
12868;BME280;33517;49.866;8.320;2023-11-19T11:10:01;100099.56;;;20.50;60.15
12868;BME280;33517;49.866;8.320;2023-11-19T11:12:55;100097.84;;;20.33;61.21
12868;BME280;33517;49.866;8.320;2023-11-19T11:15:49;100088.34;;;19.90;61.62
12868;BME280;33517;49.866;8.320;2023-11-19T11:18:41;100090.34;;;19.72;62.43
12868;BME280;33517;49.866;8.320;2023-11-19T11:21:33;100095.44;;;19.96;63.03
12868;BME280;33517;49.866;8.320;2023-11-19T11:24:44;100091.50;;;20.10;60.95
12868;BME280;33517;49.866;8.320;2023-11-19T11:27:49;100091.97;;;19.61;62.18
12868;BME280;33517;49.866;8.320;2023-11-19T11:31:00;100086.16;;;20.22;61.60
12868;BME280;33517;49.866;8.320;2023-11-19T11:34:09;100073.88;;;19.98;60.85
12868;BME280;33517;49.866;8.320;2023-11-19T11:37:12;100097.44;;;19.78;61.13
12868;BME280;33517;49.866;8.320;2023-11-19T11:40:14;100095.53;;;20.48;58.52
12868;BME280;33517;49.866;8.320;2023-11-19T11:46:56;100097.44;;;19.78;56.47
12868;BME280;33517;49.866;8.320;2023-11-19T11:49:48;100108.09;;;20.01;57.37
12868;BME280;33517;49.866;8.320;2023-11-19T11:56:08;100099.84;;;19.91;55.15
12868;BME280;33517;49.866;8.320;2023-11-19T11:59:00;100080.50;;;20.47;52.34
12868;BME280;33517;49.866;8.320;2023-11-19T12:01:57;100066.34;;;20.35;51.71
12868;BME280;33517;49.866;8.320;2023-11-19T12:04:51;100085.19;;;20.40;52.08
12868;BME280;33517;49.866;8.320;2023-11-19T12:07:54;100089.59;;;20.74;52.72
12868;BME280;33517;49.866;8.320;2023-11-19T12:10:49;100073.41;;;19.78;53.53
12868;BME280;33517;49.866;8.320;2023-11-19T12:13:55;100071.78;;;19.65;51.41
12868;BME280;33517;49.866;8.320;2023-11-19T12:16:50;100068.06;;;19.78;50.36
12868;BME280;33517;49.866;8.320;2023-11-19T12:19:42;100052.03;;;19.78;49.75
12868;BME280;33517;49.866;8.320;2023-11-19T12:22:35;100062.44;;;20.02;49.55
12868;BME280;33517;49.866;8.320;2023-11-19T12:25:34;100055.88;;;20.45;48.42
12868;BME280;33517;49.866;8.320;2023-11-19T12:28:26;100060.72;;;20.59;48.10
12868;BME280;33517;49.866;8.320;2023-11-19T12:31:19;100056.25;;;20.93;48.62
12868;BME280;33517;49.866;8.320;2023-11-19T12:34:11;100068.56;;;21.39;47.06
12868;BME280;33517;49.866;8.320;2023-11-19T12:37:06;100066.59;;;21.67;45.43
12868;BME280;33517;49.866;8.320;2023-11-19T12:39:59;100070.19;;;21.40;45.03
12868;BME280;33517;49.866;8.320;2023-11-19T12:42:52;100058.09;;;21.04;45.13
12868;BME280;33517;49.866;8.320;2023-11-19T12:45:44;100058.16;;;20.81;46.54
12868;BME280;33517;49.866;8.320;2023-11-19T12:48:37;100060.38;;;20.84;47.16
12868;BME280;33517;49.866;8.320;2023-11-19T12:51:33;100060.75;;;21.04;46.81
12868;BME280;33517;49.866;8.320;2023-11-19T12:54:34;100050.38;;;20.79;46.81
12868;BME280;33517;49.866;8.320;2023-11-19T12:57:37;100048.22;;;20.93;46.98
12868;BME280;33517;49.866;8.320;2023-11-19T13:00:29;100048.50;;;20.12;48.10
12868;BME280;33517;49.866;8.320;2023-11-19T13:03:29;100038.63;;;21.08;48.41
12868;BME280;33517;49.866;8.320;2023-11-19T13:06:23;100037.97;;;21.35;47.48
12868;BME280;33517;49.866;8.320;2023-11-19T13:09:22;100039.94;;;21.94;48.17
12868;BME280;33517;49.866;8.320;2023-11-19T13:12:15;100051.50;;;22.38;47.79
12868;BME280;33517;49.866;8.320;2023-11-19T13:15:22;100054.34;;;22.74;46.49
12868;BME280;33517;49.866;8.320;2023-11-19T13:18:16;100052.81;;;22.35;45.62
12868;BME280;33517;49.866;8.320;2023-11-19T13:21:08;100054.06;;;21.89;45.14
12868;BME280;33517;49.866;8.320;2023-11-19T13:24:01;100044.09;;;21.68;46.57
12868;BME280;33517;49.866;8.320;2023-11-19T13:26:53;100046.50;;;21.32;46.77
12868;BME280;33517;49.866;8.320;2023-11-19T13:29:46;100055.47;;;20.64;48.25
12868;BME280;33517;49.866;8.320;2023-11-19T13:32:38;100048.22;;;18.98;50.94
12868;BME280;33517;49.866;8.320;2023-11-19T13:35:30;100053.38;;;17.97;54.02
12868;BME280;33517;49.866;8.320;2023-11-19T13:38:22;100049.47;;;17.08;56.47
12868;BME280;33517;49.866;8.320;2023-11-19T13:41:16;100037.22;;;16.76;57.14
12868;BME280;33517;49.866;8.320;2023-11-19T13:44:08;100029.63;;;16.41;59.33
12868;BME280;33517;49.866;8.320;2023-11-19T13:46:59;100035.28;;;16.07;60.56
12868;BME280;33517;49.866;8.320;2023-11-19T13:49:51;100027.19;;;15.83;62.56
12868;BME280;33517;49.866;8.320;2023-11-19T13:52:44;100021.91;;;15.63;63.35
12868;BME280;33517;49.866;8.320;2023-11-19T13:55:37;100023.94;;;15.74;62.90
12868;BME280;33517;49.866;8.320;2023-11-19T13:58:30;100013.31;;;15.67;63.34
12868;BME280;33517;49.866;8.320;2023-11-19T14:01:22;100021.88;;;15.76;62.72
12868;BME280;33517;49.866;8.320;2023-11-19T14:04:14;100022.88;;;15.82;62.32
12868;BME280;33517;49.866;8.320;2023-11-19T14:07:06;100021.41;;;16.05;61.45
12868;BME280;33517;49.866;8.320;2023-11-19T14:09:58;100027.88;;;16.22;60.30
12868;BME280;33517;49.866;8.320;2023-11-19T14:12:50;100026.59;;;16.31;59.95
12868;BME280;33517;49.866;8.320;2023-11-19T14:15:43;100025.38;;;16.27;58.41
12868;BME280;33517;49.866;8.320;2023-11-19T14:18:35;100029.19;;;15.94;59.42
12868;BME280;33517;49.866;8.320;2023-11-19T14:21:27;100020.28;;;15.62;60.23
12868;BME280;33517;49.866;8.320;2023-11-19T14:24:19;100025.00;;;15.47;61.65
12868;BME280;33517;49.866;8.320;2023-11-19T14:27:11;100028.06;;;15.31;62.25
12868;BME280;33517;49.866;8.320;2023-11-19T14:30:05;100029.06;;;15.17;63.75
12868;BME280;33517;49.866;8.320;2023-11-19T14:32:58;100023.75;;;15.10;63.58
12868;BME280;33517;49.866;8.320;2023-11-19T14:35:50;100025.59;;;15.03;63.77
12868;BME280;33517;49.866;8.320;2023-11-19T14:38:42;100016.63;;;14.98;63.32
12868;BME280;33517;49.866;8.320;2023-11-19T14:41:34;100020.88;;;14.86;63.51
12868;BME280;33517;49.866;8.320;2023-11-19T14:44:26;100020.28;;;14.77;63.75
12868;BME280;33517;49.866;8.320;2023-11-19T14:47:19;100026.56;;;14.69;64.45
12868;BME280;33517;49.866;8.320;2023-11-19T14:50:13;100032.44;;;14.58;64.50
12868;BME280;33517;49.866;8.320;2023-11-19T14:53:05;100034.66;;;14.48;65.03
12868;BME280;33517;49.866;8.320;2023-11-19T14:55:57;100033.19;;;14.39;65.38
12868;BME280;33517;49.866;8.320;2023-11-19T14:58:48;100022.59;;;14.33;65.20
12868;BME280;33517;49.866;8.320;2023-11-19T15:01:41;100028.66;;;14.27;65.78
12868;BME280;33517;49.866;8.320;2023-11-19T15:04:36;100029.03;;;14.17;65.69
12868;BME280;33517;49.866;8.320;2023-11-19T15:07:29;100025.75;;;14.15;65.96